createdAt,value
2019-04-19T00:02:25.895Z,6.87
2019-04-19T00:06:42.694Z,7.10
2019-04-19T00:10:58.034Z,9.20
2019-04-19T00:15:01.467Z,7.30
2019-04-19T00:19:31.497Z,7.53
2019-04-19T00:23:31.134Z,6.80
2019-04-19T00:27:39.590Z,7.17
2019-04-19T00:31:59.202Z,7.37
2019-04-19T00:35:53.851Z,7.40
2019-04-19T00:40:27.835Z,6.47
2019-04-19T00:44:51.715Z,6.73
2019-04-19T00:48:58.511Z,8.70
2019-04-19T00:53:07.899Z,7.47
2019-04-19T00:57:14.715Z,7.13
2019-04-19T01:01:21.567Z,7.30
2019-04-19T01:05:29.180Z,7.10
2019-04-19T01:09:48.601Z,7.10
2019-04-19T01:14:01.350Z,7.63
2019-04-19T01:18:15.495Z,6.40
2019-04-19T01:22:15.192Z,6.30
2019-04-19T01:26:19.983Z,7.30
2019-04-19T01:30:34.902Z,7.03
2019-04-19T01:34:39.870Z,6.63
2019-04-19T01:38:58.099Z,7.37
2019-04-19T01:47:51.526Z,7.30
2019-04-19T01:52:37.055Z,7.60
2019-04-19T01:56:20.434Z,6.90
2019-04-19T02:00:38.083Z,7.70
2019-04-19T02:04:41.297Z,7.83
2019-04-19T02:08:54.155Z,6.83
2019-04-19T02:13:12.087Z,7.10
2019-04-19T02:17:14.594Z,7.40
2019-04-19T02:21:27.691Z,6.97
2019-04-19T02:25:33.905Z,6.27
2019-04-19T02:29:49.823Z,6.43
2019-04-19T02:34:32.052Z,6.90
2019-04-19T02:38:40.099Z,6.53
2019-04-19T02:47:00.228Z,7.27
2019-04-19T02:55:14.555Z,7.10
2019-04-19T02:59:56.977Z,7.10
2019-04-19T03:04:06.755Z,6.57
2019-04-19T03:07:40.618Z,6.63
2019-04-19T03:12:00.877Z,7.20
2019-04-19T03:16:29.552Z,6.40
2019-04-19T03:20:28.726Z,7.13
2019-04-19T03:24:42.228Z,7.07
2019-04-19T03:28:40.509Z,7.53
2019-04-19T03:33:11.362Z,7.70
2019-04-19T03:37:16.425Z,6.70
2019-04-19T03:45:35.349Z,8.50
2019-04-19T03:49:50.626Z,8.30
2019-04-19T03:54:11.655Z,8.80
2019-04-19T03:57:58.195Z,8.70
2019-04-19T04:02:02.954Z,8.70
2019-04-19T04:06:19.617Z,8.10
2019-04-19T04:10:37.684Z,7.50
2019-04-19T04:15:02.714Z,6.95
2019-04-19T04:18:59.778Z,6.90
2019-04-19T04:23:15.476Z,6.80
2019-04-19T04:27:31.585Z,8.15
2019-04-19T04:31:44.619Z,7.27
2019-04-19T04:35:53.193Z,7.70
2019-04-19T04:39:51.403Z,7.20
2019-04-19T04:44:21.385Z,7.80
2019-04-19T04:48:43.481Z,7.00
2019-04-19T04:52:43.918Z,7.20
2019-04-19T04:57:17.178Z,7.23
2019-04-19T05:01:33.260Z,8.00
2019-04-19T05:05:49.665Z,7.40
2019-04-19T05:09:59.215Z,5.80
2019-04-19T05:14:11.309Z,6.10
2019-04-19T05:18:26.260Z,6.37
2019-04-19T05:22:31.662Z,6.27
2019-04-19T05:30:46.903Z,7.30
2019-04-19T05:35:06.982Z,6.65
2019-04-19T05:39:26.370Z,6.80
2019-04-19T05:43:54.057Z,7.57
2019-04-19T05:47:40.629Z,8.00
2019-04-19T05:51:55.188Z,6.80
2019-04-19T05:55:50.306Z,8.00
2019-04-19T06:00:16.097Z,8.23
2019-04-19T06:04:26.342Z,9.13
2019-04-19T06:08:26.493Z,8.37
2019-04-19T06:12:35.520Z,8.17
2019-04-19T06:17:11.307Z,8.20
2019-04-19T06:21:27.690Z,9.20
2019-04-19T06:25:46.115Z,11.13
2019-04-19T06:29:58.879Z,8.70
2019-04-19T06:34:04.723Z,8.53
2019-04-19T06:37:54.296Z,8.00
2019-04-19T06:42:07.738Z,7.67
2019-04-19T06:46:29.101Z,8.20
2019-04-19T06:50:34.053Z,7.70
2019-04-19T06:58:55.821Z,8.47
2019-04-19T07:02:56.247Z,7.93
2019-04-19T07:07:23.550Z,8.07
2019-04-19T07:11:43.110Z,7.70
2019-04-19T07:15:49.989Z,7.57
2019-04-19T07:19:56.226Z,7.63
2019-04-19T07:24:14.956Z,7.77
2019-04-19T07:28:23.986Z,7.70
2019-04-19T07:32:37.226Z,7.70
2019-04-19T07:36:57.684Z,8.60
2019-04-19T07:41:13.681Z,7.67
2019-04-19T07:45:10.769Z,8.00
2019-04-19T07:49:17.385Z,8.30
2019-04-19T07:53:32.043Z,8.13
2019-04-19T07:58:16.823Z,7.73
2019-04-19T08:06:28.032Z,6.90
2019-04-19T08:10:42.269Z,6.70
2019-04-19T08:14:48.014Z,6.47
2019-04-19T08:31:07.871Z,6.40
2019-04-19T08:35:17.324Z,6.23
2019-04-19T08:39:46.140Z,6.50
2019-04-19T08:43:50.921Z,6.23
2019-04-19T08:48:11.978Z,5.63
2019-04-19T08:52:25.147Z,5.40
2019-04-19T08:56:42.176Z,6.43
2019-04-19T09:01:03.515Z,6.20
2019-04-19T09:05:09.334Z,5.90
2019-04-19T09:09:27.997Z,5.90
2019-04-19T09:13:35.410Z,5.80
2019-04-19T09:18:09.262Z,5.50
2019-04-19T09:21:50.502Z,6.23
2019-04-19T09:26:03.084Z,5.80
2019-04-19T09:30:22.286Z,5.87
2019-04-19T09:34:16.829Z,5.20
2019-04-19T09:38:39.733Z,4.90
2019-04-19T09:42:46.395Z,6.13
2019-04-19T09:46:44.835Z,5.20
2019-04-19T09:51:07.488Z,5.83
2019-04-19T09:55:26.813Z,5.50
2019-04-19T09:59:24.054Z,5.27
2019-04-19T10:03:34.707Z,5.37
2019-04-19T10:07:36.790Z,5.60
2019-04-19T10:11:46.474Z,4.77
2019-04-19T10:16:00.629Z,4.53
2019-04-19T10:20:10.932Z,4.33
2019-04-19T10:24:22.604Z,4.67
2019-04-19T10:28:30.655Z,5.20
2019-04-19T10:32:40.311Z,4.70
2019-04-19T10:36:51.310Z,5.03
2019-04-19T10:41:01.775Z,3.90
2019-04-19T10:45:12.217Z,4.80
2019-04-19T10:49:32.321Z,4.63
2019-04-19T10:53:32.466Z,4.37
2019-04-19T10:57:43.105Z,4.50
2019-04-19T11:01:52.216Z,4.57
2019-04-19T11:06:01.138Z,4.00
2019-04-19T11:10:11.691Z,4.37
2019-04-19T11:14:21.845Z,4.00
2019-04-19T11:18:31.777Z,3.67
2019-04-19T11:22:41.784Z,4.10
2019-04-19T11:26:50.898Z,4.20
2019-04-19T11:31:08.910Z,3.53
2019-04-19T11:35:19.234Z,3.73
2019-04-19T11:39:28.333Z,4.00
2019-04-19T11:43:37.773Z,3.97
2019-04-19T11:47:47.369Z,3.90
2019-04-19T11:51:56.478Z,3.10
2019-04-19T11:56:28.628Z,4.20
2019-04-19T12:00:40.378Z,3.60
2019-04-19T12:04:50.296Z,3.30
2019-04-19T12:09:00.456Z,3.80
2019-04-19T12:13:09.515Z,3.80
2019-04-19T12:17:18.521Z,4.00
2019-04-19T12:21:27.581Z,4.00
2019-04-19T12:25:37.558Z,3.70
2019-04-19T12:29:49.549Z,4.00
2019-04-19T12:33:57.620Z,3.83
2019-04-19T12:38:08.007Z,3.53
2019-04-19T12:42:31.698Z,3.87
2019-04-19T12:46:41.359Z,3.90
2019-04-19T12:50:51.604Z,4.00
2019-04-19T12:55:01.937Z,3.60
2019-04-19T12:59:11.611Z,4.30
2019-04-19T13:03:39.552Z,4.20
2019-04-19T13:07:49.313Z,4.50
2019-04-19T13:11:58.948Z,3.80
2019-04-19T13:16:08.343Z,3.60
2019-04-19T13:20:24.207Z,4.40
2019-04-19T13:24:28.725Z,4.10
2019-04-19T13:28:39.483Z,4.20
2019-04-19T13:32:49.445Z,4.47
2019-04-19T13:37:23.440Z,4.50
2019-04-19T13:41:43.054Z,4.30
2019-04-19T13:45:52.691Z,4.60
2019-04-19T13:50:14.548Z,4.70
2019-04-19T13:54:12.554Z,4.53
2019-04-19T13:58:22.050Z,4.90
2019-04-19T14:02:31.438Z,3.90
2019-04-19T14:06:40.667Z,4.70
2019-04-19T14:10:50.898Z,4.63
2019-04-19T14:15:00.497Z,4.80
2019-04-19T14:19:11.395Z,4.53
2019-04-19T14:23:21.665Z,4.70
2019-04-19T14:27:31.162Z,5.30
2019-04-19T14:31:40.143Z,4.83
2019-04-19T14:35:50.167Z,5.00
2019-04-19T14:40:00.501Z,4.67
2019-04-19T14:44:09.576Z,5.40
2019-04-19T14:48:25.823Z,4.90
2019-04-19T14:52:30.125Z,5.40
2019-04-19T14:56:39.268Z,4.80
2019-04-19T15:01:08.768Z,4.80
2019-04-19T15:05:31.932Z,5.00
2019-04-19T15:09:41.667Z,5.40
2019-04-19T15:13:52.623Z,4.87
2019-04-19T15:18:02.157Z,4.40
2019-04-19T15:22:12.285Z,4.70
2019-04-19T15:26:22.600Z,4.50
2019-04-19T15:30:32.883Z,4.40
2019-04-19T15:34:43.469Z,4.80
2019-04-19T15:38:53.383Z,4.17
2019-04-19T15:43:03.182Z,4.80
2019-04-19T15:47:12.661Z,4.40
2019-04-19T15:51:27.117Z,4.80
2019-04-19T15:55:32.324Z,4.60
2019-04-19T15:59:41.338Z,4.93
2019-04-19T16:03:54.293Z,4.67
2019-04-19T16:08:12.459Z,4.40
2019-04-19T16:12:31.667Z,4.97
2019-04-19T16:16:40.609Z,4.73
2019-04-19T16:20:50.853Z,4.37
2019-04-19T16:25:01.095Z,4.20
2019-04-19T16:29:17.073Z,4.30
2019-04-19T16:33:22.019Z,4.30
2019-04-19T16:37:31.164Z,4.20
2019-04-19T16:41:40.695Z,4.90
2019-04-19T16:46:01.468Z,3.87
2019-04-19T16:50:00.577Z,4.60
2019-04-19T16:54:10.239Z,4.43
2019-04-19T16:58:20.783Z,4.50
2019-04-19T17:02:31.076Z,4.53
2019-04-19T17:06:40.549Z,5.10
2019-04-19T17:10:49.519Z,5.10
2019-04-19T17:15:08.595Z,4.57
2019-04-19T17:19:26.669Z,4.80
2019-04-19T17:23:37.027Z,4.03
2019-04-19T17:27:47.130Z,4.40
2019-04-19T17:31:56.723Z,4.30
2019-04-19T17:36:06.122Z,4.83
2019-04-19T17:40:16.240Z,5.80
2019-04-19T17:44:25.858Z,4.63
2019-04-19T17:48:34.742Z,5.63
2019-04-19T17:52:44.395Z,5.20
2019-04-19T17:56:53.385Z,6.50
2019-04-19T18:01:02.632Z,16.80
2019-04-19T18:05:11.894Z,11.83
2019-04-19T18:09:22.838Z,8.47
2019-04-19T18:13:31.443Z,7.20
2019-04-19T18:17:40.343Z,14.47
2019-04-19T18:21:50.082Z,74.13
2019-04-19T18:25:59.212Z,51.50
2019-04-19T18:30:11.759Z,89.60
2019-04-19T18:34:39.910Z,30.20
2019-04-19T18:38:50.423Z,62.70
2019-04-19T18:43:16.244Z,54.33
2019-04-19T18:51:25.849Z,11.77
2019-04-19T18:55:36.255Z,35.57
2019-04-19T18:59:40.536Z,12.23
2019-04-19T19:03:50.105Z,8.80
2019-04-19T19:08:03.547Z,6.00
2019-04-19T19:12:13.319Z,5.33
2019-04-19T19:16:25.337Z,5.50
2019-04-19T19:20:36.738Z,7.40
2019-04-19T19:25:03.125Z,5.70
2019-04-19T19:33:14.360Z,5.70
2019-04-19T19:42:18.631Z,17.80
2019-04-19T19:45:51.523Z,5.80
2019-04-19T19:50:17.900Z,6.20
2019-04-19T19:58:22.179Z,5.63
2019-04-19T20:02:36.918Z,5.30
2019-04-19T20:06:33.300Z,6.00
2019-04-19T20:10:45.889Z,6.17
2019-04-19T20:14:56.147Z,6.63
2019-04-19T20:19:06.734Z,6.10
2019-04-19T20:23:21.578Z,5.70
2019-04-19T20:27:36.585Z,5.70
2019-04-19T20:31:40.882Z,5.60
2019-04-19T20:35:55.069Z,5.30
2019-04-19T20:40:06.183Z,5.43
2019-04-19T20:44:29.056Z,5.50
2019-04-19T20:48:25.919Z,5.43
2019-04-19T20:52:45.373Z,5.57
2019-04-19T20:57:27.535Z,5.37
2019-04-19T21:01:14.870Z,5.67
2019-04-19T21:05:27.229Z,5.50
2019-04-19T21:09:37.312Z,6.17
2019-04-19T21:13:50.600Z,5.97
2019-04-19T21:17:56.046Z,17.73
2019-04-19T21:22:06.438Z,33.50
2019-04-19T21:26:21.510Z,7.13
2019-04-19T21:30:27.055Z,7.07
2019-04-19T21:34:38.170Z,44.10
2019-04-19T21:38:53.392Z,46.47
2019-04-19T21:42:59.682Z,17.60
2019-04-19T21:51:25.627Z,34.70
2019-04-19T21:55:33.928Z,42.90
2019-04-19T21:59:40.908Z,65.70
2019-04-19T22:12:10.258Z,8.40
2019-04-19T22:16:21.594Z,31.30
2019-04-19T22:33:00.384Z,60.95
2019-04-19T22:37:08.960Z,20.50
2019-04-19T22:41:21.062Z,15.27
2019-04-19T22:45:30.637Z,6.73
2019-04-19T22:49:43.694Z,8.47
2019-04-19T22:53:50.571Z,8.27
2019-04-19T22:58:01.346Z,6.93
2019-04-19T23:02:16.562Z,7.43
2019-04-19T23:06:28.097Z,10.87
